Main page
Satellite images 15-day forecastsClimateMarine weather Cyclones Lightning AirportsFAQ Newsletter About
Weather : Europe Africa North America South America Asia Australia-Oceania Others
Languages Contact

Alpine, Texas, United States

Alpine-Casparis Municipal Airport

latitude: 30-23-03N, longitude: 103-41-00W, elevation: 1376 m


METAR: KE38 290255Z AUTO 22004KT 10SM CLR 23/15 A3011 RMK AO2 LTG DSNT NE AND SW T02320149
short-TAF: missing
long-TAF: missing

Time: 22:12 (03:12 UTC)

Current weather observation

The report was made 17 minutes ago, at 02:55 UTC  
Wind 04 kt from the Southwest
Temperature 23°C
Humidity 61%
Pressure 1020 hPa
Visibility 16.1 km
Clear sky

Change units
The information on this site is subject to a disclaimer
Weather : Europe Africa North America South America Asia Australia-Oceania Others
Satellite images 15-day forecastsClimateMarine weather Cyclones Lightning AirportsFAQ Languages Contact Newsletter About